MAW weather

Malden Regional Airport
Malden, Missouri, United States

Public forecast

Using degrees Fahrenheit for public forecast. Weather courtesy of forecast.io.

METAR (pilot weather report)

Closest report is Poplar Bluff Municipal Airport, 19.1 nm (35.4 km) WNW. Retrieved 2019/06/15 19:53 UTC (50 minutes ago):

KPOF 151953Z AUTO 23012G27KT 10SM CLR 29/21 A2987 RMK AO2 PK WND 21029/1932 PRESRR SLP109 T02890211

TAF (pilot weather forecast)

Closest forecast is Cape Girardeau Regional Airport, 42.6 nm (78.9 km) NNE. Retrieved 2019/06/15 18:22 UTC (2 hours ago):

TAF KCGI 151720Z 1518/1618 21017G26KT P6SM VCSH BKN110 BKN250 TEMPO 1518/1521 6SM TSRA BR SCT040CB BKN100 FM160000 21011KT P6SM SCT045 BKN120 FM160400 20009KT P6SM VCSH FEW040 BKN200 FM161100 20008KT P6SM VCSH SCT024 BKN200